createdAt,value
2022-12-18T00:00:20.328Z,10.20
2022-12-18T00:01:29.372Z,9.83
2022-12-18T00:02:30.911Z,9.93
2022-12-18T00:03:35.957Z,9.20
2022-12-18T00:04:37.488Z,10.07
2022-12-18T00:05:38.965Z,10.07
2022-12-18T00:06:40.412Z,9.73
2022-12-18T00:07:43.076Z,9.50
2022-12-18T00:08:45.267Z,9.40
2022-12-18T00:09:46.716Z,10.20
2022-12-18T00:10:48.192Z,10.27
2022-12-18T00:11:49.684Z,8.90
2022-12-18T00:12:51.176Z,9.03
2022-12-18T00:13:54.154Z,8.87
2022-12-18T00:14:55.595Z,9.17
2022-12-18T00:16:02.003Z,9.20
2022-12-18T00:17:03.816Z,8.57
2022-12-18T00:18:05.572Z,9.40
2022-12-18T00:19:08.379Z,9.10
2022-12-18T00:20:10.115Z,9.97
2022-12-18T00:21:12.653Z,10.27
2022-12-18T00:22:14.105Z,10.40
2022-12-18T00:23:15.555Z,10.43
2022-12-18T00:24:17.254Z,9.57
2022-12-18T00:25:18.812Z,9.90
2022-12-18T00:26:21.758Z,9.57
2022-12-18T00:27:23.209Z,10.10
2022-12-18T00:28:24.667Z,9.47
2022-12-18T00:29:26.140Z,10.37
2022-12-18T00:30:27.717Z,9.40
2022-12-18T00:31:29.273Z,9.40
2022-12-18T00:32:30.778Z,10.90
2022-12-18T00:33:32.417Z,10.00
2022-12-18T00:34:34.016Z,11.03
2022-12-18T00:35:35.459Z,9.90
2022-12-18T00:36:36.967Z,10.73
2022-12-18T00:37:38.432Z,10.17
2022-12-18T00:38:40.389Z,9.67
2022-12-18T00:39:42.001Z,9.57
2022-12-18T00:40:43.445Z,9.93
2022-12-18T00:42:03.555Z,9.20
2022-12-18T00:43:05.016Z,9.87
2022-12-18T00:44:06.990Z,10.67
2022-12-18T00:45:12.589Z,9.60
2022-12-18T00:46:14.750Z,9.17
2022-12-18T00:47:16.221Z,9.93
2022-12-18T00:48:17.885Z,9.37
2022-12-18T00:49:20.012Z,10.00
2022-12-18T00:50:22.835Z,10.10
2022-12-18T00:51:24.998Z,9.87
2022-12-18T00:52:26.476Z,10.23
2022-12-18T00:53:27.949Z,8.83
2022-12-18T00:54:29.490Z,9.20
2022-12-18T00:55:30.991Z,9.20
2022-12-18T00:56:32.444Z,9.33
2022-12-18T00:57:33.871Z,9.67
2022-12-18T00:58:38.317Z,8.83
2022-12-18T00:59:39.775Z,10.40
2022-12-18T01:00:41.378Z,8.77
2022-12-18T01:01:43.729Z,9.33
2022-12-18T01:02:45.857Z,9.87
2022-12-18T01:03:47.727Z,8.70
2022-12-18T01:04:49.168Z,9.13
2022-12-18T01:05:50.900Z,10.17
2022-12-18T01:06:52.351Z,9.83
2022-12-18T01:07:53.927Z,9.13
2022-12-18T01:08:55.667Z,9.03
2022-12-18T01:09:57.323Z,9.57
2022-12-18T01:10:58.856Z,10.57
2022-12-18T01:12:00.306Z,8.23
2022-12-18T01:13:01.773Z,8.77
2022-12-18T01:14:03.253Z,9.27
2022-12-18T01:15:05.927Z,9.13
2022-12-18T01:16:07.629Z,8.53
2022-12-18T01:17:09.084Z,9.80
2022-12-18T01:18:10.726Z,9.40
2022-12-18T01:19:12.444Z,9.50
2022-12-18T01:20:13.963Z,9.10
2022-12-18T01:21:16.983Z,9.27
2022-12-18T01:22:18.423Z,8.93
2022-12-18T01:23:19.869Z,9.80
2022-12-18T01:24:21.355Z,9.73
2022-12-18T01:25:22.871Z,9.90
2022-12-18T01:26:24.856Z,9.50
2022-12-18T01:27:26.297Z,9.57
2022-12-18T01:28:27.903Z,9.43
2022-12-18T01:29:29.840Z,8.87
2022-12-18T01:30:31.308Z,8.63
2022-12-18T01:31:34.102Z,8.93
2022-12-18T01:32:35.611Z,9.07
2022-12-18T01:33:37.341Z,9.67
2022-12-18T01:34:39.086Z,8.80
2022-12-18T01:35:43.470Z,8.20
2022-12-18T01:36:44.990Z,9.90
2022-12-18T01:37:46.587Z,9.47
2022-12-18T01:38:48.563Z,9.63
2022-12-18T01:39:50.983Z,10.13
2022-12-18T01:40:57.959Z,8.87
2022-12-18T01:42:06.599Z,9.10
2022-12-18T01:43:10.092Z,9.07
2022-12-18T01:44:29.940Z,8.27
2022-12-18T01:45:32.318Z,8.37
2022-12-18T01:46:33.808Z,10.20
2022-12-18T01:47:44.644Z,8.67
2022-12-18T01:48:52.599Z,8.50
2022-12-18T01:49:54.858Z,9.10
2022-12-18T01:50:56.911Z,9.53
2022-12-18T01:51:58.428Z,9.90
2022-12-18T01:53:12.273Z,8.80
2022-12-18T01:54:14.135Z,9.93
2022-12-18T01:55:17.427Z,9.73
2022-12-18T01:56:22.075Z,9.57
2022-12-18T01:57:24.436Z,8.50
2022-12-18T01:58:46.191Z,8.00
2022-12-18T01:59:50.505Z,8.65
2022-12-18T02:00:51.976Z,7.97
2022-12-18T02:01:53.638Z,7.97
2022-12-18T02:02:55.438Z,8.57
2022-12-18T02:03:57.026Z,8.20
2022-12-18T02:04:58.968Z,9.00
2022-12-18T02:06:00.440Z,9.27
2022-12-18T02:07:10.869Z,8.63
2022-12-18T02:08:17.505Z,8.30
2022-12-18T02:09:18.964Z,8.77
2022-12-18T02:10:22.153Z,8.50
2022-12-18T02:11:32.428Z,8.77
2022-12-18T02:12:39.884Z,7.57
2022-12-18T02:13:44.093Z,7.60
2022-12-18T02:14:48.191Z,8.07
2022-12-18T02:15:55.259Z,8.60
2022-12-18T02:17:03.147Z,8.40
2022-12-18T02:18:08.633Z,7.70
2022-12-18T02:19:30.362Z,7.70
2022-12-18T02:20:52.469Z,7.70
2022-12-18T02:21:58.236Z,7.27
2022-12-18T02:23:05.191Z,7.67
2022-12-18T02:24:17.953Z,7.60
2022-12-18T02:25:25.494Z,7.40
2022-12-18T02:26:30.079Z,8.33
2022-12-18T02:27:33.325Z,8.23
2022-12-18T02:28:37.136Z,6.77
2022-12-18T02:29:46.057Z,7.57
2022-12-18T02:30:50.049Z,8.17
2022-12-18T02:31:55.680Z,7.67
2022-12-18T02:32:58.628Z,7.37
2022-12-18T02:34:02.734Z,7.03
2022-12-18T02:35:05.455Z,6.70
2022-12-18T02:36:07.922Z,6.97
2022-12-18T02:37:11.990Z,7.23
2022-12-18T02:38:14.769Z,7.67
2022-12-18T02:39:17.169Z,6.87
2022-12-18T02:40:19.229Z,8.10
2022-12-18T02:41:24.831Z,7.30
2022-12-18T02:42:26.988Z,7.53
2022-12-18T02:43:28.475Z,6.27
2022-12-18T02:44:30.435Z,7.53
2022-12-18T02:45:32.128Z,7.63
2022-12-18T02:46:35.654Z,7.70
2022-12-18T02:47:39.229Z,7.80
2022-12-18T02:48:40.823Z,7.00
2022-12-18T02:49:42.420Z,6.57
2022-12-18T02:50:49.693Z,7.10
2022-12-18T02:51:56.431Z,7.40
2022-12-18T02:53:07.356Z,7.27
2022-12-18T02:54:18.155Z,6.90
2022-12-18T02:55:27.279Z,5.80
2022-12-18T02:56:36.588Z,6.83
2022-12-18T02:57:41.686Z,6.67
2022-12-18T02:59:01.949Z,6.07
2022-12-18T03:00:07.377Z,6.60
2022-12-18T03:01:11.918Z,6.07
2022-12-18T03:02:16.334Z,6.23
2022-12-18T03:03:25.487Z,6.63
2022-12-18T03:04:30.319Z,6.27
2022-12-18T03:05:35.032Z,6.27
2022-12-18T03:06:38.235Z,7.37
2022-12-18T03:07:43.331Z,6.73
2022-12-18T03:08:46.455Z,6.83
2022-12-18T03:09:50.428Z,6.63
2022-12-18T03:10:58.528Z,5.40
2022-12-18T03:12:23.683Z,7.33
2022-12-18T03:13:48.445Z,6.50
2022-12-18T03:14:52.976Z,7.77
2022-12-18T03:15:56.240Z,5.77
2022-12-18T03:17:00.172Z,7.53
2022-12-18T03:18:11.706Z,5.93
2022-12-18T03:19:16.069Z,6.07
2022-12-18T03:20:19.931Z,6.57
2022-12-18T03:21:23.497Z,6.20
2022-12-18T03:22:25.620Z,5.73
2022-12-18T03:23:30.169Z,6.77
2022-12-18T03:24:32.703Z,6.67
2022-12-18T03:25:35.789Z,6.07
2022-12-18T03:26:38.718Z,6.30
2022-12-18T03:27:43.320Z,5.73
2022-12-18T03:28:46.984Z,6.83
2022-12-18T03:29:54.971Z,5.50
2022-12-18T03:30:58.103Z,6.60
2022-12-18T03:32:03.480Z,6.27
2022-12-18T03:33:07.774Z,6.40
2022-12-18T03:34:20.759Z,6.50
2022-12-18T03:35:23.880Z,6.23
2022-12-18T03:36:25.871Z,5.87
2022-12-18T03:37:27.419Z,6.20
2022-12-18T03:38:28.880Z,6.37
2022-12-18T03:39:30.411Z,5.97
2022-12-18T03:40:36.183Z,6.40
2022-12-18T03:41:59.647Z,6.07
2022-12-18T03:43:06.097Z,5.37
2022-12-18T03:44:26.446Z,6.27
2022-12-18T03:45:32.608Z,5.30
2022-12-18T03:46:39.774Z,6.33
2022-12-18T03:47:48.705Z,6.20
2022-12-18T03:48:52.888Z,5.93
2022-12-18T03:49:58.771Z,5.87
2022-12-18T03:51:00.226Z,6.03
2022-12-18T03:52:04.563Z,6.27
2022-12-18T03:53:24.275Z,6.03
2022-12-18T03:54:27.125Z,5.60
2022-12-18T03:55:30.583Z,5.87
2022-12-18T03:56:34.460Z,5.73
2022-12-18T03:57:36.565Z,5.50
2022-12-18T03:58:39.762Z,6.10
2022-12-18T03:59:44.445Z,5.73
2022-12-18T04:00:46.757Z,5.03
2022-12-18T04:01:50.135Z,6.37
2022-12-18T04:02:53.701Z,6.23
2022-12-18T04:03:56.152Z,6.13
2022-12-18T04:04:59.302Z,6.03
2022-12-18T04:06:01.214Z,5.63
2022-12-18T04:07:03.256Z,6.00
2022-12-18T04:08:05.435Z,6.07
2022-12-18T04:09:07.175Z,6.57
2022-12-18T04:10:13.721Z,6.57
2022-12-18T04:11:15.824Z,5.73
2022-12-18T04:12:17.460Z,5.47
2022-12-18T04:13:26.016Z,5.70
2022-12-18T04:14:27.500Z,6.50
2022-12-18T04:15:29.014Z,6.40
2022-12-18T04:16:30.561Z,6.70
2022-12-18T04:17:32.047Z,5.97
2022-12-18T04:18:33.658Z,6.03
2022-12-18T04:19:35.188Z,5.80
2022-12-18T04:20:36.637Z,6.60
2022-12-18T04:21:38.167Z,5.63
2022-12-18T04:22:40.057Z,6.10
2022-12-18T04:23:42.979Z,6.30
2022-12-18T04:24:44.728Z,8.83
2022-12-18T04:25:47.621Z,7.00
2022-12-18T04:26:49.065Z,5.77
2022-12-18T04:27:50.549Z,6.00
2022-12-18T04:28:52.327Z,5.27
2022-12-18T04:29:53.841Z,6.03
2022-12-18T04:30:55.330Z,6.37
2022-12-18T04:31:57.120Z,5.73
2022-12-18T04:32:58.956Z,7.10
2022-12-18T04:34:00.442Z,5.40
2022-12-18T04:35:01.989Z,5.93
2022-12-18T04:36:03.880Z,6.27
2022-12-18T04:37:05.447Z,5.33
2022-12-18T04:38:08.107Z,6.43
2022-12-18T04:39:09.908Z,6.53
2022-12-18T04:40:11.728Z,6.40
2022-12-18T04:41:15.964Z,5.30
2022-12-18T04:42:17.727Z,5.33
2022-12-18T04:43:19.368Z,5.30
2022-12-18T04:44:20.899Z,5.93
2022-12-18T04:45:22.373Z,6.63
2022-12-18T04:46:23.923Z,6.83
2022-12-18T04:47:25.404Z,6.00
2022-12-18T04:48:26.883Z,5.43
2022-12-18T04:49:28.404Z,5.10
2022-12-18T04:50:30.395Z,5.47
2022-12-18T04:51:31.827Z,5.93
2022-12-18T04:52:33.319Z,6.23
2022-12-18T04:53:34.904Z,5.73
2022-12-18T04:54:36.339Z,5.07
2022-12-18T04:55:37.892Z,5.73
2022-12-18T04:56:40.819Z,5.27
2022-12-18T04:57:42.344Z,5.63
2022-12-18T04:58:45.355Z,6.27
2022-12-18T04:59:46.924Z,5.60
2022-12-18T05:00:48.535Z,5.70
2022-12-18T05:01:50.030Z,5.73
2022-12-18T05:02:51.707Z,5.43
2022-12-18T05:03:53.600Z,6.20
2022-12-18T05:04:55.144Z,6.53
2022-12-18T05:05:57.379Z,6.07
2022-12-18T05:06:58.848Z,6.27
2022-12-18T05:08:00.283Z,6.97
2022-12-18T05:09:01.923Z,5.77
2022-12-18T05:10:03.572Z,5.47
2022-12-18T05:11:06.144Z,6.23
2022-12-18T05:12:07.851Z,6.03
2022-12-18T05:13:09.494Z,6.17
2022-12-18T05:14:10.922Z,6.20
2022-12-18T05:15:12.393Z,6.53
2022-12-18T05:16:14.353Z,6.57
2022-12-18T05:17:15.981Z,7.47
2022-12-18T05:18:17.618Z,7.83
2022-12-18T05:19:19.163Z,6.93
2022-12-18T05:20:20.694Z,5.90
2022-12-18T05:21:22.194Z,6.50
2022-12-18T05:22:23.643Z,6.00
2022-12-18T05:23:25.643Z,5.97
2022-12-18T05:24:28.325Z,6.13
2022-12-18T05:25:29.812Z,6.17
2022-12-18T05:26:32.235Z,6.20
2022-12-18T05:27:33.685Z,5.93
2022-12-18T05:28:35.739Z,6.20
2022-12-18T05:29:37.159Z,5.53
2022-12-18T05:30:38.606Z,5.70
2022-12-18T05:31:40.333Z,5.97
2022-12-18T05:32:42.187Z,7.00
2022-12-18T05:33:43.971Z,5.97
2022-12-18T05:34:45.731Z,6.57
2022-12-18T05:35:57.859Z,5.93
2022-12-18T05:36:59.348Z,5.77
2022-12-18T05:38:00.852Z,5.90
2022-12-18T05:39:02.472Z,6.50
2022-12-18T05:40:04.884Z,6.80
2022-12-18T05:41:06.819Z,6.00
2022-12-18T05:42:08.725Z,6.83
2022-12-18T05:43:10.541Z,6.53
2022-12-18T05:44:11.992Z,5.47
2022-12-18T05:45:13.583Z,6.53
2022-12-18T05:46:16.520Z,5.63
2022-12-18T05:47:18.669Z,6.07
2022-12-18T05:48:20.698Z,6.20
2022-12-18T05:49:22.472Z,6.67
2022-12-18T05:50:23.991Z,6.17
2022-12-18T05:51:25.611Z,6.80
2022-12-18T05:52:27.133Z,6.37
2022-12-18T05:53:28.564Z,7.17
2022-12-18T05:54:30.029Z,6.63
2022-12-18T05:55:35.554Z,5.67
2022-12-18T05:56:37.003Z,7.10
2022-12-18T05:57:39.155Z,6.13
2022-12-18T05:58:40.639Z,6.47
2022-12-18T05:59:42.100Z,6.33
2022-12-18T06:00:45.103Z,5.73
2022-12-18T06:01:46.741Z,5.63
2022-12-18T06:02:48.861Z,5.50
2022-12-18T06:03:50.555Z,6.30
2022-12-18T06:04:52.048Z,4.97
2022-12-18T06:05:53.480Z,4.93
2022-12-18T06:06:55.103Z,6.27
2022-12-18T06:07:56.605Z,5.60
2022-12-18T06:08:58.090Z,5.53
2022-12-18T06:09:59.690Z,5.40
2022-12-18T06:11:01.124Z,6.60
2022-12-18T06:12:02.788Z,5.10
2022-12-18T06:13:04.331Z,5.20
2022-12-18T06:14:06.286Z,5.23
2022-12-18T06:15:08.028Z,5.37
2022-12-18T06:16:09.537Z,5.20
2022-12-18T06:17:11.041Z,5.60
2022-12-18T06:18:12.771Z,5.43
2022-12-18T06:19:16.022Z,5.47
2022-12-18T06:20:17.647Z,4.93
2022-12-18T06:21:19.543Z,4.80
2022-12-18T06:22:21.004Z,5.67
2022-12-18T06:23:22.559Z,5.00
2022-12-18T06:24:24.368Z,5.90
2022-12-18T06:25:25.849Z,4.90
2022-12-18T06:26:28.513Z,5.43
2022-12-18T06:27:30.273Z,5.67
2022-12-18T06:28:31.765Z,4.73
2022-12-18T06:29:33.231Z,5.80
2022-12-18T06:30:34.813Z,6.73
2022-12-18T06:31:36.377Z,5.87
2022-12-18T06:32:37.906Z,5.23
2022-12-18T06:33:40.009Z,5.87
2022-12-18T06:34:41.639Z,5.90
2022-12-18T06:35:43.305Z,5.00
2022-12-18T06:36:44.741Z,5.83
2022-12-18T06:37:46.296Z,6.27
2022-12-18T06:38:47.879Z,5.33
2022-12-18T06:39:49.504Z,6.00
2022-12-18T06:40:51.182Z,5.63
2022-12-18T06:41:52.647Z,6.27
2022-12-18T06:42:54.100Z,6.47
2022-12-18T06:43:59.714Z,6.23
2022-12-18T06:45:01.976Z,5.37
2022-12-18T06:46:03.882Z,6.03
2022-12-18T06:47:05.451Z,5.70
2022-12-18T06:48:07.179Z,5.93
2022-12-18T06:49:10.224Z,6.37
2022-12-18T06:50:12.118Z,6.30
2022-12-18T06:51:16.223Z,5.77
2022-12-18T06:52:17.799Z,5.50
2022-12-18T06:53:19.259Z,5.63
2022-12-18T06:54:21.011Z,6.13
2022-12-18T06:55:23.615Z,6.10
2022-12-18T06:56:25.145Z,5.20
2022-12-18T06:57:26.913Z,6.07
2022-12-18T06:58:28.761Z,5.17
2022-12-18T06:59:30.263Z,5.50
2022-12-18T07:00:31.745Z,6.40
2022-12-18T07:01:33.280Z,5.83
2022-12-18T07:02:35.033Z,5.40
2022-12-18T07:03:37.291Z,5.80
2022-12-18T07:04:39.086Z,5.73
2022-12-18T07:05:41.252Z,7.40
2022-12-18T07:06:42.747Z,6.57
2022-12-18T07:07:44.173Z,5.97
2022-12-18T07:08:46.296Z,6.57
2022-12-18T07:09:47.792Z,5.83
2022-12-18T07:10:55.780Z,6.67
2022-12-18T07:11:57.680Z,6.23
2022-12-18T07:12:59.513Z,6.87
2022-12-18T07:14:01.025Z,5.73
2022-12-18T07:15:02.668Z,6.93
2022-12-18T07:16:15.072Z,6.13
2022-12-18T07:17:18.824Z,6.80
2022-12-18T07:18:20.360Z,6.87
2022-12-18T07:19:24.343Z,7.30
2022-12-18T07:20:25.824Z,6.90
2022-12-18T07:21:27.357Z,6.53
2022-12-18T07:22:28.811Z,6.83
2022-12-18T07:23:30.683Z,6.90
2022-12-18T07:24:33.333Z,6.70
2022-12-18T07:25:35.871Z,6.70
2022-12-18T07:26:37.344Z,7.03
2022-12-18T07:27:38.780Z,7.53
2022-12-18T07:28:41.742Z,6.87
2022-12-18T07:29:43.216Z,6.17
2022-12-18T07:30:44.992Z,7.17
2022-12-18T07:31:46.768Z,7.93
2022-12-18T07:32:48.279Z,7.53
2022-12-18T07:33:50.709Z,7.30
2022-12-18T07:34:52.144Z,7.10
2022-12-18T07:35:53.628Z,7.43
2022-12-18T07:36:55.076Z,12.70
2022-12-18T07:37:56.506Z,15.27
2022-12-18T07:38:57.983Z,19.07
2022-12-18T07:39:59.438Z,17.90
2022-12-18T07:41:01.521Z,18.17
2022-12-18T07:42:21.734Z,16.53
2022-12-18T07:43:24.747Z,9.82
2022-12-18T07:44:26.175Z,11.00
2022-12-18T07:45:27.662Z,12.27
2022-12-18T07:46:29.515Z,10.40
2022-12-18T07:47:33.668Z,7.17
2022-12-18T07:48:35.192Z,8.07
2022-12-18T07:49:36.620Z,8.20
2022-12-18T07:50:38.679Z,6.50
2022-12-18T07:51:40.271Z,7.03
2022-12-18T07:52:41.711Z,7.53
2022-12-18T07:53:43.404Z,7.40
2022-12-18T07:54:45.185Z,7.80
2022-12-18T07:56:24.955Z,7.60
2022-12-18T07:57:16.506Z,6.72
2022-12-18T07:58:29.660Z,7.27
2022-12-18T07:59:31.111Z,8.70
2022-12-18T08:00:32.588Z,7.70
2022-12-18T08:01:34.429Z,9.03
2022-12-18T08:02:36.131Z,7.37
2022-12-18T08:03:38.187Z,7.80
2022-12-18T08:04:39.891Z,7.47
2022-12-18T08:05:41.339Z,7.77
2022-12-18T08:06:47.617Z,7.27
2022-12-18T08:07:50.204Z,6.83
2022-12-18T08:08:52.518Z,7.30
2022-12-18T08:09:53.956Z,7.37
2022-12-18T08:10:55.430Z,7.30
2022-12-18T08:11:57.035Z,7.77
2022-12-18T08:13:04.467Z,8.50
2022-12-18T08:14:06.488Z,8.17
2022-12-18T08:15:08.113Z,8.60
2022-12-18T08:16:09.753Z,8.60
2022-12-18T08:17:11.227Z,9.03
2022-12-18T08:18:14.568Z,8.63
2022-12-18T08:19:16.127Z,9.33
2022-12-18T08:20:19.264Z,8.67
2022-12-18T08:21:25.144Z,8.40
2022-12-18T08:22:27.085Z,7.97
2022-12-18T08:23:28.917Z,8.43
2022-12-18T08:24:30.484Z,7.97
2022-12-18T08:25:31.924Z,8.60
2022-12-18T08:26:33.471Z,7.90
2022-12-18T08:27:35.013Z,8.17
2022-12-18T08:28:36.898Z,8.47
2022-12-18T08:29:38.416Z,9.20
2022-12-18T08:30:40.230Z,9.47
2022-12-18T08:31:41.988Z,8.57
2022-12-18T08:32:43.451Z,6.57
2022-12-18T08:33:45.209Z,7.33
2022-12-18T08:34:46.658Z,8.63
2022-12-18T08:35:48.098Z,8.60
2022-12-18T08:36:49.917Z,7.30
2022-12-18T08:37:51.367Z,7.93
2022-12-18T08:38:52.984Z,8.43
2022-12-18T08:39:54.651Z,9.13
2022-12-18T08:40:59.551Z,8.50
2022-12-18T08:42:20.232Z,8.50
2022-12-18T08:43:40.758Z,8.97
2022-12-18T08:44:42.923Z,8.60
2022-12-18T08:45:44.715Z,7.60
2022-12-18T08:46:46.234Z,9.13
2022-12-18T08:47:47.712Z,8.57
2022-12-18T08:48:51.073Z,8.50
2022-12-18T08:49:52.660Z,8.93
2022-12-18T08:50:57.481Z,8.47
2022-12-18T08:51:58.984Z,8.07
2022-12-18T08:53:00.570Z,8.03
2022-12-18T08:54:02.471Z,8.07
2022-12-18T08:55:05.554Z,7.20
2022-12-18T08:56:07.341Z,8.93
2022-12-18T08:57:08.799Z,8.57
2022-12-18T08:58:10.328Z,8.00
2022-12-18T08:59:18.779Z,7.90
2022-12-18T09:00:21.224Z,8.00
2022-12-18T09:01:23.279Z,8.73
2022-12-18T09:02:25.020Z,7.63
2022-12-18T09:03:26.621Z,7.70
2022-12-18T09:04:28.211Z,9.10
2022-12-18T09:05:32.193Z,10.40
2022-12-18T09:06:33.669Z,9.50
2022-12-18T09:07:35.143Z,10.47
2022-12-18T09:08:38.118Z,11.27
2022-12-18T09:09:39.775Z,9.90
2022-12-18T09:10:45.181Z,10.17
2022-12-18T09:11:46.808Z,11.37
2022-12-18T09:12:48.252Z,12.77
2022-12-18T09:13:50.079Z,10.70
2022-12-18T09:14:51.777Z,11.07
2022-12-18T09:15:54.288Z,12.37
2022-12-18T09:16:56.048Z,11.77
2022-12-18T09:17:57.529Z,9.27
2022-12-18T09:19:02.786Z,8.33
2022-12-18T09:20:04.589Z,9.10
2022-12-18T09:21:10.302Z,8.63
2022-12-18T09:22:11.747Z,8.20
2022-12-18T09:23:13.441Z,6.97
2022-12-18T09:24:18.811Z,7.43
2022-12-18T09:25:20.628Z,7.97
2022-12-18T09:26:23.211Z,7.53
2022-12-18T09:27:24.672Z,8.40
2022-12-18T09:28:26.133Z,7.97
2022-12-18T09:29:27.637Z,8.77
2022-12-18T09:30:29.295Z,9.30
2022-12-18T09:31:30.847Z,9.50
2022-12-18T09:32:32.295Z,8.73
2022-12-18T09:33:33.911Z,8.13
2022-12-18T09:34:35.364Z,8.83
2022-12-18T09:35:40.390Z,7.90
2022-12-18T09:36:41.965Z,9.97
2022-12-18T09:37:45.572Z,9.53
2022-12-18T09:38:47.188Z,9.53
2022-12-18T09:39:48.620Z,10.17
2022-12-18T09:40:53.909Z,9.93
2022-12-18T09:41:59.032Z,11.18
2022-12-18T09:43:01.668Z,13.07
2022-12-18T09:44:18.193Z,11.73
2022-12-18T09:45:19.710Z,9.90
2022-12-18T09:46:27.186Z,10.47
2022-12-18T09:47:30.713Z,10.75
2022-12-18T09:48:33.774Z,12.43
2022-12-18T09:49:37.109Z,11.32
2022-12-18T09:50:40.141Z,11.27
2022-12-18T09:52:07.685Z,12.43
2022-12-18T09:53:14.240Z,9.53
2022-12-18T09:54:20.005Z,9.37
2022-12-18T09:55:36.905Z,9.70
2022-12-18T09:56:41.320Z,9.83
2022-12-18T09:57:47.111Z,9.23
2022-12-18T09:58:52.775Z,8.80
2022-12-18T09:59:56.159Z,9.03
2022-12-18T10:00:57.932Z,9.45
2022-12-18T10:01:59.518Z,9.67
2022-12-18T10:03:10.651Z,9.10
2022-12-18T10:04:12.376Z,10.07
2022-12-18T10:05:18.083Z,9.67
2022-12-18T10:06:33.059Z,9.90
2022-12-18T10:07:53.111Z,8.93
2022-12-18T10:09:02.808Z,10.03
2022-12-18T10:10:07.725Z,8.50
2022-12-18T10:11:18.692Z,10.00
2022-12-18T10:12:39.152Z,9.65
2022-12-18T10:13:47.842Z,9.55
2022-12-18T10:15:02.999Z,9.65
2022-12-18T10:16:14.445Z,9.73
2022-12-18T10:17:27.639Z,9.68
2022-12-18T10:18:54.167Z,9.97
2022-12-18T10:19:59.051Z,7.82
2022-12-18T10:21:18.904Z,8.23
2022-12-18T10:22:40.759Z,9.10
2022-12-18T10:23:53.011Z,8.93
2022-12-18T10:25:23.370Z,9.13
2022-12-18T10:26:25.283Z,8.60
2022-12-18T10:27:27.821Z,9.65
2022-12-18T10:28:30.866Z,8.77
2022-12-18T10:29:32.334Z,10.07
2022-12-18T10:30:33.917Z,12.07
2022-12-18T10:31:35.560Z,12.07
2022-12-18T10:32:37.233Z,11.75
2022-12-18T10:33:39.613Z,12.80
2022-12-18T10:34:41.381Z,11.35
2022-12-18T10:35:44.001Z,11.52
2022-12-18T10:36:45.945Z,11.30
2022-12-18T10:38:01.035Z,10.30
2022-12-18T10:39:19.441Z,10.52
2022-12-18T10:40:24.253Z,10.63
2022-12-18T10:41:27.820Z,9.70
2022-12-18T10:42:31.041Z,9.55
2022-12-18T10:43:33.675Z,10.57
2022-12-18T10:44:35.217Z,9.75
2022-12-18T10:45:36.700Z,9.32
2022-12-18T10:46:38.315Z,11.02
2022-12-18T10:48:00.125Z,11.10
2022-12-18T10:49:01.591Z,9.10
2022-12-18T10:50:03.214Z,9.25
2022-12-18T10:51:13.530Z,10.32
2022-12-18T10:52:17.837Z,10.20
2022-12-18T10:53:21.657Z,10.23
2022-12-18T10:54:24.156Z,10.32
2022-12-18T10:55:28.643Z,9.38
2022-12-18T10:56:31.428Z,8.50
2022-12-18T10:57:40.068Z,7.70
2022-12-18T10:58:42.365Z,7.30
2022-12-18T10:59:51.995Z,7.90
2022-12-18T11:01:05.470Z,9.10
2022-12-18T11:02:25.788Z,8.68
2022-12-18T11:03:31.500Z,7.97
2022-12-18T11:04:33.108Z,8.75
2022-12-18T11:05:35.046Z,9.75
2022-12-18T11:06:52.884Z,8.80
2022-12-18T11:07:57.423Z,8.60
2022-12-18T11:46:19.547Z,7.82
2022-12-18T11:47:43.355Z,8.48
2022-12-18T11:55:02.056Z,6.93
2022-12-18T11:56:15.467Z,7.97
2022-12-18T11:57:29.512Z,7.97
2022-12-18T11:58:39.481Z,9.48
2022-12-18T11:59:51.104Z,9.43
2022-12-18T12:01:02.778Z,9.52
2022-12-18T12:02:04.347Z,10.18
2022-12-18T12:03:14.922Z,10.73
2022-12-18T12:04:19.163Z,12.02
2022-12-18T12:05:27.226Z,10.73
2022-12-18T12:06:49.812Z,11.63
2022-12-18T12:08:03.128Z,12.10
2022-12-18T12:09:04.595Z,11.23
2022-12-18T12:10:24.398Z,10.82
2022-12-18T12:11:36.085Z,11.20
2022-12-18T12:12:49.527Z,11.23
2022-12-18T12:14:20.253Z,11.02
2022-12-18T12:15:29.418Z,11.02
2022-12-18T12:16:36.287Z,9.80
2022-12-18T12:17:43.814Z,10.45
2022-12-18T12:19:04.021Z,9.95
2022-12-18T12:20:35.934Z,10.40
2022-12-18T12:21:42.005Z,10.52
2022-12-18T12:23:02.132Z,9.25
2022-12-18T12:24:22.589Z,8.90
2022-12-18T12:25:32.219Z,9.27
2022-12-18T12:26:34.027Z,9.63
2022-12-18T12:27:35.799Z,10.52
2022-12-18T12:28:49.368Z,10.75
2022-12-18T12:30:08.470Z,10.73
2022-12-18T12:31:26.523Z,10.55
2022-12-18T12:32:43.343Z,9.32
2022-12-18T12:33:53.083Z,10.57
2022-12-18T12:35:12.836Z,10.23
2022-12-18T16:45:37.624Z,14.27
2022-12-18T16:46:40.302Z,14.27
2022-12-18T16:47:42.353Z,15.20
2022-12-18T16:48:43.840Z,16.77
2022-12-18T16:51:00.635Z,14.68
2022-12-18T16:52:02.209Z,17.83
2022-12-18T16:53:03.707Z,15.90
2022-12-18T16:54:10.164Z,29.50
2022-12-18T16:55:13.236Z,31.45
2022-12-18T16:56:14.743Z,28.08
2022-12-18T16:57:18.636Z,26.45
2022-12-18T16:58:20.196Z,27.48
2022-12-18T16:59:21.740Z,27.23
2022-12-18T17:00:23.300Z,28.80
2022-12-18T17:01:25.422Z,29.37
2022-12-18T17:02:28.364Z,26.50
2022-12-18T17:03:30.215Z,30.90
2022-12-18T17:04:31.904Z,28.20
2022-12-18T17:05:33.828Z,28.25
2022-12-18T17:06:37.154Z,28.23
2022-12-18T17:07:38.768Z,27.17
2022-12-18T17:08:40.256Z,28.48
2022-12-18T17:09:42.132Z,27.60
2022-12-18T17:10:43.956Z,26.90
2022-12-18T17:11:45.573Z,27.83
2022-12-18T17:12:47.092Z,27.17
2022-12-18T17:13:48.658Z,27.92
2022-12-18T17:14:50.577Z,29.80
2022-12-18T17:15:52.196Z,27.80
2022-12-18T17:17:19.914Z,26.35
2022-12-18T17:18:16.316Z,25.83
2022-12-18T17:19:18.053Z,26.65
2022-12-18T17:20:19.831Z,25.52
2022-12-18T17:21:21.340Z,25.20
2022-12-18T17:22:25.806Z,25.38
2022-12-18T17:23:27.560Z,24.05
2022-12-18T17:24:34.572Z,23.27
2022-12-18T17:25:40.041Z,22.90
2022-12-18T17:26:42.371Z,23.08
2022-12-18T17:27:43.857Z,21.48
2022-12-18T17:28:45.376Z,20.27
2022-12-18T17:29:48.621Z,20.55
2022-12-18T17:30:51.080Z,20.50
2022-12-18T17:31:52.680Z,19.42
2022-12-18T17:32:55.917Z,19.23
2022-12-18T17:33:58.713Z,20.08
2022-12-18T17:35:05.431Z,20.40
2022-12-18T17:36:09.220Z,19.87
2022-12-18T17:37:10.788Z,23.80
2022-12-18T17:38:13.023Z,24.73
2022-12-18T17:39:17.662Z,23.05
2022-12-18T17:40:19.312Z,22.77
2022-12-18T17:41:21.120Z,23.17
2022-12-18T17:42:22.589Z,23.88
2022-12-18T17:43:24.122Z,26.45
2022-12-18T17:44:25.914Z,25.65
2022-12-18T17:45:27.611Z,26.80
2022-12-18T17:46:31.115Z,26.75
2022-12-18T17:47:35.401Z,26.75
2022-12-18T17:48:37.025Z,25.67
2022-12-18T17:49:39.940Z,25.50
2022-12-18T17:50:41.479Z,28.17
2022-12-18T17:51:43.273Z,26.30
2022-12-18T17:52:44.967Z,25.88
2022-12-18T17:53:46.841Z,24.80
2022-12-18T17:54:48.463Z,25.13
2022-12-18T17:56:01.612Z,21.10
2022-12-18T17:57:03.652Z,18.48
2022-12-18T17:58:05.192Z,19.33
2022-12-18T17:59:07.322Z,18.95
2022-12-18T18:00:10.074Z,21.63
2022-12-18T18:01:16.216Z,21.63
2022-12-18T18:02:17.958Z,20.80
2022-12-18T18:03:19.643Z,19.67
2022-12-18T18:04:21.262Z,16.48
2022-12-18T18:05:23.131Z,17.60
2022-12-18T18:06:24.694Z,14.73
2022-12-18T18:07:26.216Z,15.75
2022-12-18T18:08:28.526Z,17.20
2022-12-18T18:09:30.004Z,18.73
2022-12-18T18:10:33.276Z,17.98
2022-12-18T18:11:55.307Z,17.38
2022-12-18T18:13:16.440Z,17.58
2022-12-18T18:14:20.147Z,17.38
2022-12-18T18:15:22.199Z,17.27
2022-12-18T18:16:23.718Z,16.10
2022-12-18T18:17:25.240Z,16.02
2022-12-18T18:18:26.754Z,16.77
2022-12-18T18:19:28.554Z,15.73
2022-12-18T18:20:32.083Z,16.45
2022-12-18T18:21:34.144Z,15.73
2022-12-18T18:22:35.966Z,16.50
2022-12-18T18:23:37.488Z,15.93
2022-12-18T18:24:43.519Z,16.00
2022-12-18T18:25:45.383Z,15.75
2022-12-18T18:26:47.412Z,15.82
2022-12-18T18:27:49.006Z,15.80
2022-12-18T18:28:55.486Z,16.98
2022-12-18T18:29:57.598Z,16.73
2022-12-18T18:30:59.794Z,15.63
2022-12-18T18:32:02.058Z,15.52
2022-12-18T18:33:06.516Z,16.92
2022-12-18T18:34:21.360Z,17.13
2022-12-18T18:35:52.318Z,16.08
2022-12-18T18:36:46.164Z,16.83
2022-12-18T18:37:48.918Z,18.80
2022-12-18T18:38:52.677Z,18.92
2022-12-18T18:39:54.283Z,18.52
2022-12-18T18:41:00.222Z,18.98
2022-12-18T18:42:03.734Z,17.45
2022-12-18T18:43:05.240Z,19.60
2022-12-18T18:44:07.876Z,22.08
2022-12-18T18:45:10.052Z,22.92
2022-12-18T18:46:13.001Z,24.35
2022-12-18T18:47:14.647Z,25.10
2022-12-18T18:48:16.334Z,25.83
2022-12-18T18:49:17.916Z,26.33
2022-12-18T18:50:19.410Z,27.67
2022-12-18T18:51:21.950Z,27.25
2022-12-18T18:52:23.432Z,28.60
2022-12-18T18:53:25.407Z,26.05
2022-12-18T18:54:26.962Z,28.15
2022-12-18T18:55:28.449Z,26.67
2022-12-18T18:57:18.777Z,26.80
2022-12-18T18:57:51.887Z,26.15
2022-12-18T18:58:55.272Z,25.98
2022-12-18T18:59:56.839Z,25.33